createdAt,value
2018-01-27T00:01:25.019Z,85.20
2018-01-27T00:03:52.932Z,92.77
2018-01-27T00:06:20.404Z,86.03
2018-01-27T00:08:48.676Z,90.30
2018-01-27T00:11:17.520Z,95.10
2018-01-27T00:13:51.784Z,88.47
2018-01-27T00:16:20.064Z,89.83
2018-01-27T00:18:48.658Z,90.13
2018-01-27T00:21:16.989Z,91.87
2018-01-27T00:23:45.311Z,90.93
2018-01-27T00:26:13.564Z,87.83
2018-01-27T00:28:41.544Z,85.93
2018-01-27T00:31:09.478Z,87.63
2018-01-27T00:33:37.243Z,94.40
2018-01-27T00:36:05.053Z,86.93
2018-01-27T00:38:33.311Z,92.30
2018-01-27T00:41:00.789Z,87.47
2018-01-27T00:43:29.064Z,88.00
2018-01-27T00:45:57.316Z,85.37
2018-01-27T00:48:24.859Z,91.13
2018-01-27T00:50:53.069Z,89.53
2018-01-27T00:53:20.558Z,89.17
2018-01-27T00:55:48.069Z,94.40
2018-01-27T00:58:15.570Z,90.37
2018-01-27T01:00:43.808Z,90.90
2018-01-27T01:03:11.285Z,89.03
2018-01-27T01:05:39.628Z,84.43
2018-01-27T01:08:07.125Z,87.83
2018-01-27T01:10:34.599Z,93.10
2018-01-27T01:13:03.009Z,88.83
2018-01-27T01:15:30.492Z,89.17
2018-01-27T01:17:57.976Z,81.27
2018-01-27T01:20:25.463Z,88.53
2018-01-27T01:22:53.706Z,91.40
2018-01-27T01:25:21.184Z,87.97
2018-01-27T01:27:49.445Z,93.27
2018-01-27T01:30:16.932Z,88.40
2018-01-27T01:32:45.194Z,88.07
2018-01-27T01:35:13.447Z,85.77
2018-01-27T01:37:40.916Z,92.07
2018-01-27T01:40:08.405Z,89.23
2018-01-27T01:42:41.429Z,95.20
2018-01-27T01:45:08.938Z,87.97
2018-01-27T01:47:37.176Z,93.87
2018-01-27T01:50:04.654Z,99.60
2018-01-27T01:52:32.148Z,92.27
2018-01-27T01:55:00.390Z,89.63
2018-01-27T01:57:27.904Z,88.57
2018-01-27T01:59:55.412Z,87.53
2018-01-27T02:02:22.884Z,95.10
2018-01-27T02:04:51.134Z,96.50
2018-01-27T02:07:18.653Z,95.23
2018-01-27T02:09:46.136Z,102.30
2018-01-27T02:12:13.619Z,104.37
2018-01-27T02:14:41.125Z,109.83
2018-01-27T02:17:08.607Z,119.67
2018-01-27T02:19:36.113Z,124.53
2018-01-27T02:22:04.397Z,125.70
2018-01-27T02:24:32.652Z,118.87
2018-01-27T02:27:00.128Z,127.40
2018-01-27T02:29:28.394Z,137.27
2018-01-27T02:31:55.877Z,131.87
2018-01-27T02:34:23.439Z,132.00
2018-01-27T02:36:50.944Z,135.50
2018-01-27T02:39:18.427Z,128.87
2018-01-27T02:41:45.923Z,137.20
2018-01-27T02:44:13.412Z,133.37
2018-01-27T02:46:40.896Z,138.10
2018-01-27T02:49:08.400Z,130.63
2018-01-27T02:51:36.647Z,137.97
2018-01-27T02:54:04.124Z,127.17
2018-01-27T02:56:32.475Z,132.07
2018-01-27T02:58:59.971Z,131.40
2018-01-27T03:01:28.228Z,132.33
2018-01-27T03:03:56.724Z,134.67
2018-01-27T03:06:24.989Z,132.57
2018-01-27T03:08:53.257Z,131.20
2018-01-27T03:11:20.764Z,128.27
2018-01-27T03:13:48.253Z,133.17
2018-01-27T03:16:15.765Z,132.57
2018-01-27T03:18:43.276Z,134.73
2018-01-27T03:21:10.763Z,130.47
2018-01-27T03:23:39.016Z,136.57
2018-01-27T03:26:06.523Z,133.53
2018-01-27T03:28:34.004Z,122.50
2018-01-27T03:31:01.502Z,137.77
2018-01-27T03:33:28.991Z,130.83
2018-01-27T03:35:57.265Z,134.43
2018-01-27T03:38:25.548Z,133.77
2018-01-27T03:40:53.806Z,134.97
2018-01-27T03:43:22.112Z,130.67
2018-01-27T03:45:49.609Z,128.00
2018-01-27T03:48:17.103Z,135.00
2018-01-27T03:50:45.393Z,130.67
2018-01-27T03:53:13.658Z,130.27
2018-01-27T03:55:41.912Z,128.97
2018-01-27T03:58:09.608Z,135.37
2018-01-27T04:00:37.864Z,134.83
2018-01-27T04:03:05.358Z,126.37
2018-01-27T04:05:32.872Z,138.97
2018-01-27T04:08:00.356Z,134.10
2018-01-27T04:10:28.612Z,132.37
2018-01-27T04:12:56.116Z,132.87
2018-01-27T04:15:23.588Z,128.20
2018-01-27T04:17:51.135Z,134.37
2018-01-27T04:20:18.631Z,129.57
2018-01-27T04:22:46.124Z,131.57
2018-01-27T04:25:13.628Z,127.80
2018-01-27T04:27:41.121Z,129.07
2018-01-27T04:30:08.615Z,131.50
2018-01-27T04:32:36.883Z,135.03
2018-01-27T04:35:05.156Z,128.40
2018-01-27T04:37:32.648Z,129.67
2018-01-27T04:40:00.155Z,131.43
2018-01-27T04:42:27.656Z,133.90
2018-01-27T04:44:55.917Z,134.43
2018-01-27T04:47:24.200Z,129.80
2018-01-27T04:49:52.468Z,130.93
2018-01-27T04:52:20.840Z,133.20
2018-01-27T04:54:48.321Z,130.53
2018-01-27T04:57:16.607Z,135.20
2018-01-27T04:59:44.116Z,128.80
2018-01-27T05:02:11.612Z,131.23
2018-01-27T05:04:39.909Z,130.03
2018-01-27T05:07:07.390Z,134.73
2018-01-27T05:09:34.873Z,136.07
2018-01-27T05:12:02.398Z,143.77
2018-01-27T05:14:29.896Z,137.20
2018-01-27T05:16:57.399Z,132.30
2018-01-27T05:19:24.908Z,133.93
2018-01-27T05:21:52.399Z,146.43
2018-01-27T05:24:20.656Z,137.27
2018-01-27T05:26:48.166Z,149.50
2018-01-27T05:32:09.569Z,139.60
2018-01-27T05:34:37.827Z,133.07
2018-01-27T05:37:05.317Z,131.57
2018-01-27T05:39:33.593Z,131.00
2018-01-27T05:42:01.861Z,131.67
2018-01-27T05:44:30.148Z,135.87
2018-01-27T05:46:58.416Z,122.50
2018-01-27T05:49:26.714Z,125.07
2018-01-27T05:51:54.216Z,124.53
2018-01-27T05:54:21.714Z,124.47
2018-01-27T05:56:49.989Z,121.53
2018-01-27T05:59:18.264Z,120.43
2018-01-27T06:01:46.585Z,121.57
2018-01-27T06:04:14.081Z,118.57
2018-01-27T06:06:41.588Z,129.20
2018-01-27T06:09:09.067Z,117.30
2018-01-27T06:11:36.579Z,122.17
2018-01-27T06:14:04.845Z,123.30
2018-01-27T06:16:32.321Z,122.60
2018-01-27T06:19:00.588Z,121.30
2018-01-27T06:21:28.080Z,121.70
2018-01-27T06:23:55.564Z,123.70
2018-01-27T06:26:23.068Z,118.17
2018-01-27T06:28:50.548Z,126.80
2018-01-27T06:31:18.809Z,115.77
2018-01-27T06:33:47.089Z,122.73
2018-01-27T06:36:15.347Z,142.47
2018-01-27T06:38:42.861Z,129.57
2018-01-27T06:41:10.365Z,126.27
2018-01-27T06:43:37.984Z,123.57
2018-01-27T06:46:05.471Z,130.20
2018-01-27T06:48:32.975Z,126.87
2018-01-27T06:51:01.236Z,125.50
2018-01-27T06:53:29.496Z,130.57
2018-01-27T06:55:56.984Z,131.67
2018-01-27T06:58:25.236Z,136.83
2018-01-27T07:00:52.736Z,133.83
2018-01-27T07:03:20.223Z,132.67
2018-01-27T07:05:47.734Z,123.63
2018-01-27T07:08:15.236Z,125.20
2018-01-27T07:10:42.724Z,129.20
2018-01-27T07:13:10.208Z,126.50
2018-01-27T07:15:38.482Z,131.20
2018-01-27T07:18:06.738Z,129.90
2018-01-27T07:20:34.240Z,126.63
2018-01-27T07:23:02.533Z,128.73
2018-01-27T07:25:30.021Z,132.60
2018-01-27T07:27:57.532Z,125.57
2018-01-27T07:30:25.798Z,135.10
2018-01-27T07:32:54.048Z,125.17
2018-01-27T07:35:21.530Z,127.33
2018-01-27T07:37:49.801Z,130.43
2018-01-27T07:40:18.064Z,121.97
2018-01-27T07:42:45.556Z,117.90
2018-01-27T07:45:13.095Z,123.13
2018-01-27T07:47:40.577Z,124.47
2018-01-27T07:50:08.827Z,130.33
2018-01-27T07:52:36.377Z,129.27
2018-01-27T07:55:03.836Z,122.53
2018-01-27T07:57:31.336Z,132.73
2018-01-27T07:59:58.835Z,126.03
2018-01-27T08:02:26.378Z,122.60
2018-01-27T08:04:53.892Z,132.50
2018-01-27T08:07:22.181Z,125.87
2018-01-27T08:09:50.450Z,127.63
2018-01-27T08:12:18.734Z,125.63
2018-01-27T08:14:46.996Z,131.87
2018-01-27T08:17:15.243Z,138.90
2018-01-27T08:19:42.735Z,132.20
2018-01-27T08:22:11.013Z,121.50
2018-01-27T08:24:39.274Z,141.73
2018-01-27T08:27:06.768Z,135.37
2018-01-27T08:29:35.021Z,139.57
2018-01-27T08:32:03.325Z,127.40
2018-01-27T08:34:30.821Z,146.10
2018-01-27T08:36:58.306Z,148.27
2018-01-27T08:39:25.819Z,144.17
2018-01-27T08:41:53.324Z,145.73
2018-01-27T08:44:20.803Z,142.83
2018-01-27T08:46:49.079Z,137.57
2018-01-27T08:49:17.338Z,139.57
2018-01-27T08:51:44.820Z,149.17
2018-01-27T08:54:13.085Z,148.87
2018-01-27T08:56:41.352Z,147.87
2018-01-27T08:59:09.612Z,129.70
2018-01-27T09:01:37.105Z,128.90
2018-01-27T09:04:05.380Z,136.23
2018-01-27T09:06:33.697Z,135.73
2018-01-27T09:09:01.191Z,137.40
2018-01-27T09:11:28.750Z,124.80
2018-01-27T09:13:56.724Z,138.47
2018-01-27T09:16:24.380Z,122.20
2018-01-27T09:18:51.869Z,131.47
2018-01-27T09:21:19.383Z,119.67
2018-01-27T09:23:46.892Z,137.13
2018-01-27T09:26:14.389Z,144.53
2018-01-27T09:28:41.912Z,135.97
2018-01-27T09:31:10.168Z,122.90
2018-01-27T09:33:37.656Z,125.60
2018-01-27T09:36:05.929Z,142.13
2018-01-27T09:38:34.180Z,136.17
2018-01-27T09:41:01.664Z,123.23
2018-01-27T09:43:29.929Z,138.93
2018-01-27T09:45:58.196Z,139.27
2018-01-27T09:48:25.687Z,135.43
2018-01-27T09:50:53.955Z,138.50
2018-01-27T09:53:22.212Z,660.37
2018-01-27T09:55:49.750Z,281.90
2018-01-27T09:58:17.247Z,173.20
2018-01-27T10:00:45.508Z,140.80
2018-01-27T10:03:13.376Z,260.40
2018-01-27T10:05:41.712Z,181.47
2018-01-27T10:08:09.964Z,216.57
2018-01-27T10:10:38.327Z,134.73
2018-01-27T10:13:06.921Z,133.80
2018-01-27T10:15:35.187Z,145.27
2018-01-27T10:18:03.458Z,160.33
2018-01-27T10:20:30.983Z,145.37
2018-01-27T10:22:58.785Z,132.60
2018-01-27T10:25:27.068Z,138.37
2018-01-27T10:27:55.350Z,143.73
2018-01-27T10:30:23.612Z,143.53
2018-01-27T10:32:51.509Z,137.27
2018-01-27T10:35:19.854Z,133.83
2018-01-27T10:37:47.750Z,137.07
2018-01-27T10:40:16.155Z,139.10
2018-01-27T10:42:43.698Z,131.70
2018-01-27T10:45:12.062Z,128.13
2018-01-27T10:47:40.349Z,140.80
2018-01-27T10:50:08.605Z,122.80
2018-01-27T10:52:36.093Z,125.80
2018-01-27T10:55:04.369Z,114.43
2018-01-27T10:57:32.619Z,121.37
2018-01-27T11:00:00.181Z,114.30
2018-01-27T11:02:27.685Z,110.00
2018-01-27T11:04:55.172Z,115.90
2018-01-27T11:07:22.664Z,117.07
2018-01-27T11:09:50.927Z,116.73
2018-01-27T11:12:18.416Z,111.43
2018-01-27T11:14:46.687Z,108.93
2018-01-27T11:17:15.003Z,114.33
2018-01-27T11:19:43.226Z,116.77
2018-01-27T11:22:10.734Z,112.43
2018-01-27T11:24:38.222Z,106.87
2018-01-27T11:27:05.712Z,110.57
2018-01-27T11:29:33.983Z,108.60
2018-01-27T11:32:01.518Z,104.90
2018-01-27T11:34:29.015Z,104.90
2018-01-27T11:36:57.275Z,103.83
2018-01-27T11:39:24.777Z,109.43
2018-01-27T11:41:52.284Z,94.13
2018-01-27T11:44:19.779Z,101.17
2018-01-27T11:46:47.276Z,108.50
2018-01-27T11:49:14.768Z,95.43
2018-01-27T11:51:42.260Z,98.37
2018-01-27T11:54:09.760Z,90.30
2018-01-27T11:56:37.260Z,92.20
2018-01-27T11:59:05.529Z,91.80
2018-01-27T12:01:33.092Z,101.20
2018-01-27T12:04:01.367Z,95.50
2018-01-27T12:06:29.656Z,98.00
2018-01-27T12:08:57.939Z,91.03
2018-01-27T12:11:26.212Z,91.07
2018-01-27T12:13:54.480Z,87.23
2018-01-27T12:16:22.731Z,87.50
2018-01-27T12:18:50.230Z,91.77
2018-01-27T12:21:18.492Z,87.47
2018-01-27T12:23:46.744Z,87.10
2018-01-27T12:26:14.400Z,85.17
2018-01-27T12:28:41.893Z,88.50
2018-01-27T12:31:10.146Z,86.03
2018-01-27T12:33:37.665Z,84.33
2018-01-27T12:36:05.294Z,87.70
2018-01-27T12:38:33.702Z,89.33
2018-01-27T12:41:01.208Z,85.13
2018-01-27T12:43:28.748Z,82.73
2018-01-27T12:45:56.270Z,86.10
2018-01-27T12:48:23.846Z,89.43
2018-01-27T12:50:51.382Z,85.20
2018-01-27T12:53:19.627Z,79.93
2018-01-27T12:55:47.207Z,77.73
2018-01-27T12:58:15.458Z,71.90
2018-01-27T13:00:43.018Z,77.70
2018-01-27T13:03:10.594Z,75.37
2018-01-27T13:05:38.077Z,77.17
2018-01-27T13:08:06.360Z,79.00
2018-01-27T13:10:34.623Z,77.40
2018-01-27T13:13:02.882Z,77.77
2018-01-27T13:15:31.168Z,71.50
2018-01-27T13:17:58.676Z,69.40
2018-01-27T13:20:26.168Z,67.23
2018-01-27T13:22:53.668Z,60.57
2018-01-27T13:25:21.940Z,57.63
2018-01-27T13:27:50.197Z,46.83
2018-01-27T13:30:18.532Z,46.13
2018-01-27T13:32:46.016Z,47.93
2018-01-27T13:35:13.513Z,77.20
2018-01-27T13:37:41.779Z,45.20
2018-01-27T13:40:10.035Z,49.20
2018-01-27T13:42:37.521Z,50.60
2018-01-27T13:45:05.805Z,248.37
2018-01-27T13:47:34.074Z,48.53
2018-01-27T13:50:02.351Z,46.80
2018-01-27T13:52:30.623Z,50.87
2018-01-27T13:54:58.201Z,51.33
2018-01-27T13:57:26.454Z,60.90
2018-01-27T13:59:53.937Z,63.30
2018-01-27T14:02:22.180Z,64.03
2018-01-27T14:04:49.698Z,68.17
2018-01-27T14:07:17.204Z,63.50
2018-01-27T14:09:44.685Z,79.73
2018-01-27T14:12:12.958Z,74.57
2018-01-27T14:14:41.237Z,68.93
2018-01-27T14:17:09.513Z,72.27
2018-01-27T14:19:37.781Z,71.90
2018-01-27T14:22:05.265Z,74.67
2018-01-27T14:24:33.519Z,70.53
2018-01-27T14:27:01.795Z,73.10
2018-01-27T14:29:29.277Z,71.60
2018-01-27T14:31:57.532Z,72.40
2018-01-27T14:34:25.032Z,75.37
2018-01-27T14:36:52.529Z,68.57
2018-01-27T14:39:20.001Z,68.00
2018-01-27T14:41:47.505Z,66.70
2018-01-27T14:44:14.998Z,65.77
2018-01-27T14:46:42.478Z,56.80
2018-01-27T14:49:10.002Z,59.70
2018-01-27T14:51:37.490Z,59.93
2018-01-27T14:54:04.968Z,61.23
2018-01-27T14:56:33.237Z,56.47
2018-01-27T14:59:00.726Z,55.23
2018-01-27T15:01:28.239Z,55.50
2018-01-27T15:03:55.740Z,57.93
2018-01-27T15:06:23.992Z,54.50
2018-01-27T15:08:51.487Z,53.60
2018-01-27T15:11:18.972Z,56.10
2018-01-27T15:13:46.457Z,52.87
2018-01-27T15:16:13.971Z,55.67
2018-01-27T15:18:41.453Z,55.00
2018-01-27T15:21:09.868Z,73.43
2018-01-27T15:23:38.188Z,73.90
2018-01-27T15:26:06.608Z,69.47
2018-01-27T15:28:36.207Z,72.47
2018-01-27T15:31:07.254Z,80.70
2018-01-27T15:33:34.736Z,60.17
2018-01-27T15:36:02.228Z,77.93
2018-01-27T15:38:29.864Z,66.33
2018-01-27T15:40:59.229Z,59.93
2018-01-27T15:43:28.223Z,61.90
2018-01-27T15:45:56.873Z,93.73
2018-01-27T15:48:26.243Z,66.10
2018-01-27T15:50:54.973Z,95.97
2018-01-27T15:53:25.062Z,63.67
2018-01-27T15:55:54.345Z,59.87
2018-01-27T15:58:23.460Z,84.83
2018-01-27T16:00:51.274Z,59.30
2018-01-27T16:03:21.540Z,52.83
2018-01-27T16:05:51.020Z,60.60
2018-01-27T16:08:18.968Z,56.77
2018-01-27T16:10:47.477Z,60.03
2018-01-27T16:13:16.991Z,53.80
2018-01-27T16:15:45.449Z,58.10
2018-01-27T16:18:14.505Z,68.67
2018-01-27T16:20:43.200Z,63.23
2018-01-27T16:23:11.913Z,65.53
2018-01-27T16:25:41.192Z,58.60
2018-01-27T16:28:09.385Z,69.77
2018-01-27T16:30:38.677Z,72.07
2018-01-27T16:33:07.485Z,58.07
2018-01-27T16:35:36.272Z,50.87
2018-01-27T16:38:06.897Z,53.70
2018-01-27T16:40:36.404Z,50.67
2018-01-27T16:43:04.005Z,55.70
2018-01-27T16:45:31.994Z,52.97
2018-01-27T16:48:00.304Z,52.20
2018-01-27T16:50:28.037Z,52.00
2018-01-27T16:52:56.831Z,53.60
2018-01-27T16:55:25.323Z,53.70
2018-01-27T16:57:53.465Z,54.07
2018-01-27T17:00:21.849Z,55.07
2018-01-27T17:02:51.293Z,58.60
2018-01-27T17:05:18.943Z,56.20
2018-01-27T17:07:46.711Z,54.73
2018-01-27T17:10:15.365Z,51.60
2018-01-27T17:12:42.993Z,54.47
2018-01-27T17:15:11.200Z,51.93
2018-01-27T17:17:39.017Z,51.30
2018-01-27T17:20:07.032Z,53.60
2018-01-27T17:22:35.219Z,55.10
2018-01-27T17:25:02.916Z,54.27
2018-01-27T17:27:32.126Z,54.17
2018-01-27T17:29:59.929Z,55.67
2018-01-27T17:32:28.615Z,55.83
2018-01-27T17:34:56.217Z,55.43
2018-01-27T17:37:25.346Z,57.80
2018-01-27T17:39:53.193Z,62.57
2018-01-27T17:42:21.318Z,55.40
2018-01-27T17:44:49.571Z,56.50
2018-01-27T17:47:17.221Z,59.07
2018-01-27T17:49:45.587Z,69.77
2018-01-27T17:52:14.167Z,61.53
2018-01-27T17:54:42.585Z,61.13
2018-01-27T17:57:10.174Z,51.60
2018-01-27T17:59:38.058Z,51.23
2018-01-27T18:02:06.524Z,51.27
2018-01-27T18:04:34.240Z,47.03
2018-01-27T18:07:02.425Z,54.93
2018-01-27T18:09:30.535Z,50.37
2018-01-27T18:11:59.008Z,51.50
2018-01-27T18:14:26.843Z,56.63
2018-01-27T18:16:54.461Z,61.50
2018-01-27T18:19:22.108Z,63.50
2018-01-27T18:21:49.784Z,67.53
2018-01-27T18:24:18.479Z,56.70
2018-01-27T18:26:46.181Z,63.27
2018-01-27T18:29:13.764Z,57.30
2018-01-27T18:31:41.409Z,61.57
2018-01-27T18:34:09.895Z,59.23
2018-01-27T18:36:37.861Z,57.30
2018-01-27T18:39:05.449Z,79.80
2018-01-27T18:41:33.095Z,58.60
2018-01-27T18:44:00.761Z,64.63
2018-01-27T18:46:28.306Z,60.90
2018-01-27T18:48:56.119Z,63.97
2018-01-27T18:51:23.745Z,64.30
2018-01-27T18:53:51.409Z,60.33
2018-01-27T18:56:26.852Z,58.83
2018-01-27T18:58:54.477Z,61.40
2018-01-27T19:01:22.229Z,66.70
2018-01-27T19:03:49.753Z,65.40
2018-01-27T19:06:17.364Z,210.97
2018-01-27T19:08:47.792Z,431.00
2018-01-27T19:11:15.504Z,72.60
2018-01-27T19:13:43.121Z,350.90
2018-01-27T19:16:11.599Z,70.07
2018-01-27T19:18:39.378Z,63.40
2018-01-27T19:21:07.065Z,60.37
2018-01-27T19:23:35.560Z,60.83
2018-01-27T19:26:03.223Z,63.80
2018-01-27T19:28:30.869Z,66.57
2018-01-27T19:30:58.484Z,64.03
2018-01-27T19:33:26.042Z,61.17
2018-01-27T19:35:55.059Z,63.53
2018-01-27T19:38:23.409Z,62.00
2018-01-27T19:40:50.979Z,70.80
2018-01-27T19:43:19.381Z,68.03
2018-01-27T19:45:47.201Z,61.97
2018-01-27T19:48:15.002Z,67.03
2018-01-27T19:50:43.325Z,60.43
2018-01-27T19:53:10.912Z,63.30
2018-01-27T19:55:38.527Z,60.67
2018-01-27T19:58:06.608Z,60.57
2018-01-27T20:00:35.555Z,65.97
2018-01-27T20:03:03.136Z,67.33
2018-01-27T20:05:32.416Z,66.67
2018-01-27T20:08:00.029Z,65.23
2018-01-27T20:10:27.734Z,68.80
2018-01-27T20:12:55.465Z,87.73
2018-01-27T20:15:27.599Z,69.60
2018-01-27T20:17:55.203Z,60.97
2018-01-27T20:20:22.852Z,68.10
2018-01-27T20:22:50.562Z,62.57
2018-01-27T20:25:18.226Z,68.13
2018-01-27T20:27:46.015Z,65.03
2018-01-27T20:30:14.467Z,67.27
2018-01-27T20:32:42.323Z,62.30
2018-01-27T20:35:10.355Z,68.57
2018-01-27T20:37:38.242Z,63.43
2018-01-27T20:40:07.025Z,71.20
2018-01-27T20:42:34.577Z,76.90
2018-01-27T20:45:02.276Z,66.30
2018-01-27T20:47:29.838Z,72.03
2018-01-27T20:49:57.465Z,67.33
2018-01-27T20:52:25.420Z,67.47
2018-01-27T20:55:00.806Z,63.67
2018-01-27T20:57:29.568Z,64.53
2018-01-27T20:59:57.451Z,75.93
2018-01-27T21:02:25.307Z,63.40
2018-01-27T21:04:53.163Z,68.73
2018-01-27T21:07:32.143Z,66.27
2018-01-27T21:10:06.158Z,64.50
2018-01-27T21:12:47.599Z,62.70
2018-01-27T21:15:16.645Z,63.20
2018-01-27T21:17:44.587Z,64.73
2018-01-27T21:20:14.134Z,65.00
2018-01-27T21:22:55.442Z,66.87
2018-01-27T21:25:23.215Z,59.80
2018-01-27T21:27:51.021Z,63.40
2018-01-27T21:30:18.584Z,62.97
2018-01-27T21:32:46.169Z,63.37
2018-01-27T21:35:14.542Z,57.90
2018-01-27T21:37:42.234Z,60.30
2018-01-27T21:40:10.981Z,63.87
2018-01-27T21:42:39.251Z,63.47
2018-01-27T21:45:06.824Z,59.53
2018-01-27T21:47:34.340Z,62.07
2018-01-27T21:50:01.961Z,66.03
2018-01-27T21:52:29.692Z,77.53
2018-01-27T21:54:57.531Z,69.23
2018-01-27T21:57:25.067Z,85.67
2018-01-27T21:59:53.376Z,85.13
2018-01-27T22:02:20.903Z,74.93
2018-01-27T22:04:49.213Z,66.90
2018-01-27T22:07:17.469Z,63.30
2018-01-27T22:09:45.919Z,60.70
2018-01-27T22:12:15.908Z,60.90
2018-01-27T22:14:43.745Z,62.60
2018-01-27T22:17:11.726Z,57.97
2018-01-27T22:19:40.785Z,58.07
2018-01-27T22:22:09.012Z,58.17
2018-01-27T22:24:39.032Z,54.83
2018-01-27T22:27:07.264Z,58.77
2018-01-27T22:29:35.377Z,55.30
2018-01-27T22:32:03.423Z,60.43
2018-01-27T22:34:31.594Z,59.90
2018-01-27T22:37:01.014Z,62.80
2018-01-27T22:39:28.839Z,56.37
2018-01-27T22:41:57.076Z,61.23
2018-01-27T22:44:25.804Z,56.87
2018-01-27T22:46:53.738Z,60.97
2018-01-27T22:49:21.856Z,55.80
2018-01-27T22:51:52.951Z,60.17
2018-01-27T22:54:21.107Z,62.73
2018-01-27T22:56:48.978Z,56.07
2018-01-27T22:59:16.529Z,57.10
2018-01-27T23:01:44.116Z,58.53
2018-01-27T23:04:11.725Z,57.37
2018-01-27T23:06:40.882Z,56.77
2018-01-27T23:09:11.284Z,56.57
2018-01-27T23:11:38.863Z,58.23
2018-01-27T23:14:06.675Z,58.37
2018-01-27T23:16:34.282Z,56.73
2018-01-27T23:19:01.932Z,53.27
2018-01-27T23:21:30.639Z,53.60
2018-01-27T23:23:58.187Z,58.03
2018-01-27T23:26:25.687Z,52.90
2018-01-27T23:28:53.209Z,52.40
2018-01-27T23:31:20.734Z,50.97
2018-01-27T23:33:49.026Z,52.80
2018-01-27T23:36:16.536Z,50.10
2018-01-27T23:38:44.037Z,48.47
2018-01-27T23:41:12.323Z,51.77
2018-01-27T23:43:39.825Z,50.27
2018-01-27T23:46:07.681Z,49.03
2018-01-27T23:48:36.128Z,53.17
2018-01-27T23:51:03.736Z,55.67
2018-01-27T23:53:31.339Z,54.10
2018-01-27T23:55:59.774Z,49.00
2018-01-27T23:58:27.333Z,55.10
